sensor_id;sensor_type;location;lat;lon;timestamp;temperature;humidity
13992;DHT22;7070;53.586;9.692;2023-11-19T00:01:10;7.20;88.00
13992;DHT22;7070;53.586;9.692;2023-11-19T00:03:37;7.40;88.20
13992;DHT22;7070;53.586;9.692;2023-11-19T00:06:04;7.20;88.00
13992;DHT22;7070;53.586;9.692;2023-11-19T00:08:32;7.30;88.20
13992;DHT22;7070;53.586;9.692;2023-11-19T00:10:59;7.30;88.10
13992;DHT22;7070;53.586;9.692;2023-11-19T00:13:26;7.30;88.30
13992;DHT22;7070;53.586;9.692;2023-11-19T00:15:53;7.30;88.20
13992;DHT22;7070;53.586;9.692;2023-11-19T00:18:20;7.30;88.30
13992;DHT22;7070;53.586;9.692;2023-11-19T00:20:47;7.30;88.30
13992;DHT22;7070;53.586;9.692;2023-11-19T00:23:14;7.30;88.20
13992;DHT22;7070;53.586;9.692;2023-11-19T00:25:42;7.30;88.10
13992;DHT22;7070;53.586;9.692;2023-11-19T00:28:09;7.20;88.00
13992;DHT22;7070;53.586;9.692;2023-11-19T00:30:36;7.20;88.10
13992;DHT22;7070;53.586;9.692;2023-11-19T00:33:03;7.10;88.00
13992;DHT22;7070;53.586;9.692;2023-11-19T00:35:30;7.30;88.20
13992;DHT22;7070;53.586;9.692;2023-11-19T00:37:58;7.20;88.30
13992;DHT22;7070;53.586;9.692;2023-11-19T00:40:26;7.20;88.30
13992;DHT22;7070;53.586;9.692;2023-11-19T00:42:54;7.20;88.30
13992;DHT22;7070;53.586;9.692;2023-11-19T00:45:21;7.20;88.50
13992;DHT22;7070;53.586;9.692;2023-11-19T00:47:48;7.20;88.50
13992;DHT22;7070;53.586;9.692;2023-11-19T00:50:15;7.20;88.40
13992;DHT22;7070;53.586;9.692;2023-11-19T00:52:43;7.20;88.50
13992;DHT22;7070;53.586;9.692;2023-11-19T00:55:09;7.20;88.50
13992;DHT22;7070;53.586;9.692;2023-11-19T00:57:37;7.20;88.50
13992;DHT22;7070;53.586;9.692;2023-11-19T01:00:06;7.30;88.60
13992;DHT22;7070;53.586;9.692;2023-11-19T01:02:43;7.30;88.70
13992;DHT22;7070;53.586;9.692;2023-11-19T01:05:10;7.30;88.70
13992;DHT22;7070;53.586;9.692;2023-11-19T01:07:39;7.30;88.60
13992;DHT22;7070;53.586;9.692;2023-11-19T01:10:07;7.30;88.70
13992;DHT22;7070;53.586;9.692;2023-11-19T01:12:34;7.30;88.70
13992;DHT22;7070;53.586;9.692;2023-11-19T01:15:00;7.30;88.80
13992;DHT22;7070;53.586;9.692;2023-11-19T01:17:29;7.40;88.90
13992;DHT22;7070;53.586;9.692;2023-11-19T01:19:57;7.40;88.80
13992;DHT22;7070;53.586;9.692;2023-11-19T01:22:23;7.40;88.80
13992;DHT22;7070;53.586;9.692;2023-11-19T01:24:50;7.40;88.80
13992;DHT22;7070;53.586;9.692;2023-11-19T01:27:17;7.40;88.80
13992;DHT22;7070;53.586;9.692;2023-11-19T01:29:44;7.40;88.80
13992;DHT22;7070;53.586;9.692;2023-11-19T01:32:11;7.40;88.70
13992;DHT22;7070;53.586;9.692;2023-11-19T01:34:40;8.00;89.30
13992;DHT22;7070;53.586;9.692;2023-11-19T01:37:07;7.40;88.70
13992;DHT22;7070;53.586;9.692;2023-11-19T01:39:35;7.40;88.80
13992;DHT22;7070;53.586;9.692;2023-11-19T01:42:02;9.20;90.10
13992;DHT22;7070;53.586;9.692;2023-11-19T01:44:29;7.50;88.90
13992;DHT22;7070;53.586;9.692;2023-11-19T01:46:57;7.70;89.00
13992;DHT22;7070;53.586;9.692;2023-11-19T01:49:27;7.50;88.80
13992;DHT22;7070;53.586;9.692;2023-11-19T01:51:57;8.60;89.90
13992;DHT22;7070;53.586;9.692;2023-11-19T01:54:24;7.60;89.00
13992;DHT22;7070;53.586;9.692;2023-11-19T01:56:53;7.50;88.90
13992;DHT22;7070;53.586;9.692;2023-11-19T01:59:23;7.50;88.90
13992;DHT22;7070;53.586;9.692;2023-11-19T02:01:52;7.50;89.00
13992;DHT22;7070;53.586;9.692;2023-11-19T02:04:20;7.70;89.20
13992;DHT22;7070;53.586;9.692;2023-11-19T02:06:48;7.50;88.90
13992;DHT22;7070;53.586;9.692;2023-11-19T02:09:19;7.60;89.10
13992;DHT22;7070;53.586;9.692;2023-11-19T02:11:46;7.50;89.30
13992;DHT22;7070;53.586;9.692;2023-11-19T02:14:17;7.70;89.30
13992;DHT22;7070;53.586;9.692;2023-11-19T02:16:44;7.60;89.10
13992;DHT22;7070;53.586;9.692;2023-11-19T02:19:11;7.60;89.10
13992;DHT22;7070;53.586;9.692;2023-11-19T02:21:38;8.20;89.70
13992;DHT22;7070;53.586;9.692;2023-11-19T02:24:06;7.70;89.20
13992;DHT22;7070;53.586;9.692;2023-11-19T02:26:39;7.70;89.20
13992;DHT22;7070;53.586;9.692;2023-11-19T02:29:09;7.70;89.20
13992;DHT22;7070;53.586;9.692;2023-11-19T02:31:36;7.70;89.20
13992;DHT22;7070;53.586;9.692;2023-11-19T02:34:03;7.70;89.20
13992;DHT22;7070;53.586;9.692;2023-11-19T02:36:31;7.70;89.30
13992;DHT22;7070;53.586;9.692;2023-11-19T02:38:58;7.70;89.20
13992;DHT22;7070;53.586;9.692;2023-11-19T02:41:25;7.80;89.30
13992;DHT22;7070;53.586;9.692;2023-11-19T02:43:52;7.80;89.40
13992;DHT22;7070;53.586;9.692;2023-11-19T02:46:20;7.80;89.40
13992;DHT22;7070;53.586;9.692;2023-11-19T02:48:47;8.00;89.70
13992;DHT22;7070;53.586;9.692;2023-11-19T02:51:14;8.00;89.60
13992;DHT22;7070;53.586;9.692;2023-11-19T02:53:41;7.90;89.40
13992;DHT22;7070;53.586;9.692;2023-11-19T02:56:10;7.90;89.40
13992;DHT22;7070;53.586;9.692;2023-11-19T02:58:45;7.90;89.50
13992;DHT22;7070;53.586;9.692;2023-11-19T03:01:13;8.00;89.60
13992;DHT22;7070;53.586;9.692;2023-11-19T03:03:50;8.40;90.00
13992;DHT22;7070;53.586;9.692;2023-11-19T03:06:20;8.00;89.70
13992;DHT22;7070;53.586;9.692;2023-11-19T03:08:47;8.10;89.70
13992;DHT22;7070;53.586;9.692;2023-11-19T03:11:14;8.20;90.00
13992;DHT22;7070;53.586;9.692;2023-11-19T03:13:41;8.20;90.00
13992;DHT22;7070;53.586;9.692;2023-11-19T03:16:08;8.20;90.00
13992;DHT22;7070;53.586;9.692;2023-11-19T03:18:37;8.40;90.00
13992;DHT22;7070;53.586;9.692;2023-11-19T03:21:06;8.30;90.00
13992;DHT22;7070;53.586;9.692;2023-11-19T03:23:33;8.40;89.90
13992;DHT22;7070;53.586;9.692;2023-11-19T03:26:00;8.40;89.90
13992;DHT22;7070;53.586;9.692;2023-11-19T03:28:31;8.40;89.90
13992;DHT22;7070;53.586;9.692;2023-11-19T03:30:57;8.40;89.90
13992;DHT22;7070;53.586;9.692;2023-11-19T03:33:24;8.50;90.30
13992;DHT22;7070;53.586;9.692;2023-11-19T03:35:53;8.70;90.00
13992;DHT22;7070;53.586;9.692;2023-11-19T03:38:23;8.50;90.00
13992;DHT22;7070;53.586;9.692;2023-11-19T03:40:50;8.60;90.00
13992;DHT22;7070;53.586;9.692;2023-11-19T03:43:17;9.00;90.10
13992;DHT22;7070;53.586;9.692;2023-11-19T03:45:44;8.60;90.00
13992;DHT22;7070;53.586;9.692;2023-11-19T03:48:11;9.60;90.30
13992;DHT22;7070;53.586;9.692;2023-11-19T03:50:38;8.70;90.00
13992;DHT22;7070;53.586;9.692;2023-11-19T03:53:05;8.70;90.00
13992;DHT22;7070;53.586;9.692;2023-11-19T03:55:34;8.80;90.00
13992;DHT22;7070;53.586;9.692;2023-11-19T03:58:00;8.80;90.00
13992;DHT22;7070;53.586;9.692;2023-11-19T04:00:27;8.80;90.00
13992;DHT22;7070;53.586;9.692;2023-11-19T04:02:54;8.90;90.00
13992;DHT22;7070;53.586;9.692;2023-11-19T04:05:21;8.90;90.10
13992;DHT22;7070;53.586;9.692;2023-11-19T04:07:48;8.90;90.10
13992;DHT22;7070;53.586;9.692;2023-11-19T04:10:15;9.00;90.10
13992;DHT22;7070;53.586;9.692;2023-11-19T04:12:44;8.90;90.00
13992;DHT22;7070;53.586;9.692;2023-11-19T04:15:11;9.10;90.10
13992;DHT22;7070;53.586;9.692;2023-11-19T04:17:38;9.00;90.10
13992;DHT22;7070;53.586;9.692;2023-11-19T04:20:06;9.30;90.20
13992;DHT22;7070;53.586;9.692;2023-11-19T04:22:36;9.20;90.10
13992;DHT22;7070;53.586;9.692;2023-11-19T04:25:04;10.20;90.10
13992;DHT22;7070;53.586;9.692;2023-11-19T04:27:31;9.30;90.20
13992;DHT22;7070;53.586;9.692;2023-11-19T04:29:59;9.70;90.40
13992;DHT22;7070;53.586;9.692;2023-11-19T04:32:27;9.30;90.20
13992;DHT22;7070;53.586;9.692;2023-11-19T04:34:54;9.40;90.30
13992;DHT22;7070;53.586;9.692;2023-11-19T04:37:21;9.40;90.30
13992;DHT22;7070;53.586;9.692;2023-11-19T04:39:48;9.50;90.30
13992;DHT22;7070;53.586;9.692;2023-11-19T04:42:15;9.60;90.40
13992;DHT22;7070;53.586;9.692;2023-11-19T04:44:43;9.60;90.50
13992;DHT22;7070;53.586;9.692;2023-11-19T04:47:11;9.70;90.50
13992;DHT22;7070;53.586;9.692;2023-11-19T04:49:42;9.80;90.50
13992;DHT22;7070;53.586;9.692;2023-11-19T04:52:09;9.80;90.60
13992;DHT22;7070;53.586;9.692;2023-11-19T04:54:41;9.90;90.60
13992;DHT22;7070;53.586;9.692;2023-11-19T04:57:07;10.00;90.20
13992;DHT22;7070;53.586;9.692;2023-11-19T04:59:36;10.10;90.20
13992;DHT22;7070;53.586;9.692;2023-11-19T05:02:03;10.50;90.40
13992;DHT22;7070;53.586;9.692;2023-11-19T05:04:32;10.30;90.30
13992;DHT22;7070;53.586;9.692;2023-11-19T05:06:59;10.30;90.40
13992;DHT22;7070;53.586;9.692;2023-11-19T05:09:26;10.40;90.40
13992;DHT22;7070;53.586;9.692;2023-11-19T05:11:52;10.40;90.30
13992;DHT22;7070;53.586;9.692;2023-11-19T05:14:19;10.50;90.40
13992;DHT22;7070;53.586;9.692;2023-11-19T05:16:50;10.60;90.50
13992;DHT22;7070;53.586;9.692;2023-11-19T05:19:16;10.60;90.30
13992;DHT22;7070;53.586;9.692;2023-11-19T05:21:45;10.90;90.40
13992;DHT22;7070;53.586;9.692;2023-11-19T05:24:12;10.70;90.40
13992;DHT22;7070;53.586;9.692;2023-11-19T05:26:39;10.80;90.40
13992;DHT22;7070;53.586;9.692;2023-11-19T05:29:07;10.80;90.40
13992;DHT22;7070;53.586;9.692;2023-11-19T05:31:33;10.90;90.40
13992;DHT22;7070;53.586;9.692;2023-11-19T05:34:00;10.90;90.30
13992;DHT22;7070;53.586;9.692;2023-11-19T05:36:27;11.00;90.40
13992;DHT22;7070;53.586;9.692;2023-11-19T05:38:56;11.00;90.50
13992;DHT22;7070;53.586;9.692;2023-11-19T05:41:24;11.00;90.40
13992;DHT22;7070;53.586;9.692;2023-11-19T05:43:54;11.10;90.40
13992;DHT22;7070;53.586;9.692;2023-11-19T05:46:22;11.10;90.30
13992;DHT22;7070;53.586;9.692;2023-11-19T05:48:51;11.10;90.40
13992;DHT22;7070;53.586;9.692;2023-11-19T05:51:18;11.20;90.40
13992;DHT22;7070;53.586;9.692;2023-11-19T05:53:45;11.20;90.40
13992;DHT22;7070;53.586;9.692;2023-11-19T05:56:13;11.20;90.40
13992;DHT22;7070;53.586;9.692;2023-11-19T05:58:41;11.20;90.40
13992;DHT22;7070;53.586;9.692;2023-11-19T06:01:10;11.30;90.40
13992;DHT22;7070;53.586;9.692;2023-11-19T06:03:37;11.30;90.40
13992;DHT22;7070;53.586;9.692;2023-11-19T06:06:04;11.30;90.50
13992;DHT22;7070;53.586;9.692;2023-11-19T06:08:31;11.40;90.50
13992;DHT22;7070;53.586;9.692;2023-11-19T06:10:58;11.40;90.50
13992;DHT22;7070;53.586;9.692;2023-11-19T06:13:28;11.50;90.60
13992;DHT22;7070;53.586;9.692;2023-11-19T06:15:56;11.50;90.60
13992;DHT22;7070;53.586;9.692;2023-11-19T06:18:23;11.50;90.50
13992;DHT22;7070;53.586;9.692;2023-11-19T06:20:50;11.50;90.50
13992;DHT22;7070;53.586;9.692;2023-11-19T06:23:17;11.60;90.60
13992;DHT22;7070;53.586;9.692;2023-11-19T06:25:45;11.70;90.60
13992;DHT22;7070;53.586;9.692;2023-11-19T06:28:11;11.70;90.60
13992;DHT22;7070;53.586;9.692;2023-11-19T06:30:40;11.70;90.60
13992;DHT22;7070;53.586;9.692;2023-11-19T06:33:07;11.80;90.60
13992;DHT22;7070;53.586;9.692;2023-11-19T06:35:34;11.80;90.60
13992;DHT22;7070;53.586;9.692;2023-11-19T06:38:02;11.80;90.50
13992;DHT22;7070;53.586;9.692;2023-11-19T06:40:30;11.80;90.50
13992;DHT22;7070;53.586;9.692;2023-11-19T06:42:57;11.90;90.60
13992;DHT22;7070;53.586;9.692;2023-11-19T06:45:23;11.90;90.60
13992;DHT22;7070;53.586;9.692;2023-11-19T06:47:52;12.00;90.60
13992;DHT22;7070;53.586;9.692;2023-11-19T06:50:18;12.00;90.60
13992;DHT22;7070;53.586;9.692;2023-11-19T06:52:46;12.00;90.60
13992;DHT22;7070;53.586;9.692;2023-11-19T06:55:12;12.00;90.60
13992;DHT22;7070;53.586;9.692;2023-11-19T06:57:39;12.00;90.50
13992;DHT22;7070;53.586;9.692;2023-11-19T07:00:07;12.00;90.50
13992;DHT22;7070;53.586;9.692;2023-11-19T07:02:34;12.10;90.50
13992;DHT22;7070;53.586;9.692;2023-11-19T07:05:03;12.10;90.50
13992;DHT22;7070;53.586;9.692;2023-11-19T07:07:31;12.10;90.50
13992;DHT22;7070;53.586;9.692;2023-11-19T07:09:58;12.10;90.70
13992;DHT22;7070;53.586;9.692;2023-11-19T07:12:25;12.10;90.70
13992;DHT22;7070;53.586;9.692;2023-11-19T07:14:52;12.00;90.30
13992;DHT22;7070;53.586;9.692;2023-11-19T07:17:20;12.10;90.40
13992;DHT22;7070;53.586;9.692;2023-11-19T07:19:50;12.10;90.40
13992;DHT22;7070;53.586;9.692;2023-11-19T07:22:18;12.00;90.40
13992;DHT22;7070;53.586;9.692;2023-11-19T07:24:45;12.10;90.40
13992;DHT22;7070;53.586;9.692;2023-11-19T07:27:12;12.10;90.40
13992;DHT22;7070;53.586;9.692;2023-11-19T07:29:39;12.10;90.50
13992;DHT22;7070;53.586;9.692;2023-11-19T07:32:06;12.10;90.40
13992;DHT22;7070;53.586;9.692;2023-11-19T07:34:34;12.10;90.30
13992;DHT22;7070;53.586;9.692;2023-11-19T07:37:01;12.10;90.30
13992;DHT22;7070;53.586;9.692;2023-11-19T07:39:29;12.10;90.30
13992;DHT22;7070;53.586;9.692;2023-11-19T07:41:56;12.10;90.40
13992;DHT22;7070;53.586;9.692;2023-11-19T07:44:23;12.10;90.40
13992;DHT22;7070;53.586;9.692;2023-11-19T07:46:50;12.20;90.60
13992;DHT22;7070;53.586;9.692;2023-11-19T07:49:17;12.20;90.60
13992;DHT22;7070;53.586;9.692;2023-11-19T07:51:44;12.20;90.60
13992;DHT22;7070;53.586;9.692;2023-11-19T07:54:11;12.30;90.50
13992;DHT22;7070;53.586;9.692;2023-11-19T07:56:40;12.30;90.40
13992;DHT22;7070;53.586;9.692;2023-11-19T07:59:07;12.30;90.40
13992;DHT22;7070;53.586;9.692;2023-11-19T08:01:34;12.40;90.40
13992;DHT22;7070;53.586;9.692;2023-11-19T08:04:01;12.40;90.40
13992;DHT22;7070;53.586;9.692;2023-11-19T08:06:28;12.40;90.40
13992;DHT22;7070;53.586;9.692;2023-11-19T08:08:55;12.50;90.40
13992;DHT22;7070;53.586;9.692;2023-11-19T08:11:22;12.40;90.40
13992;DHT22;7070;53.586;9.692;2023-11-19T08:13:50;12.50;90.50
13992;DHT22;7070;53.586;9.692;2023-11-19T08:16:17;12.50;90.80
13992;DHT22;7070;53.586;9.692;2023-11-19T08:18:44;12.50;90.30
13992;DHT22;7070;53.586;9.692;2023-11-19T08:21:11;12.60;90.30
13992;DHT22;7070;53.586;9.692;2023-11-19T08:23:38;12.50;90.20
13992;DHT22;7070;53.586;9.692;2023-11-19T08:26:06;12.50;90.10
13992;DHT22;7070;53.586;9.692;2023-11-19T08:28:32;12.60;90.20
13992;DHT22;7070;53.586;9.692;2023-11-19T08:31:01;12.50;90.10
13992;DHT22;7070;53.586;9.692;2023-11-19T08:33:29;12.50;90.40
13992;DHT22;7070;53.586;9.692;2023-11-19T08:35:56;12.50;90.10
13992;DHT22;7070;53.586;9.692;2023-11-19T08:38:24;12.50;90.10
13992;DHT22;7070;53.586;9.692;2023-11-19T08:40:51;12.50;90.10
13992;DHT22;7070;53.586;9.692;2023-11-19T08:43:18;12.50;90.20
13992;DHT22;7070;53.586;9.692;2023-11-19T08:45:45;12.60;90.20
13992;DHT22;7070;53.586;9.692;2023-11-19T08:48:13;12.60;90.20
13992;DHT22;7070;53.586;9.692;2023-11-19T08:50:40;12.60;90.20
13992;DHT22;7070;53.586;9.692;2023-11-19T08:53:07;12.60;90.20
13992;DHT22;7070;53.586;9.692;2023-11-19T08:55:34;12.70;90.30
13992;DHT22;7070;53.586;9.692;2023-11-19T08:58:01;12.70;90.30
13992;DHT22;7070;53.586;9.692;2023-11-19T09:00:28;12.70;90.30
13992;DHT22;7070;53.586;9.692;2023-11-19T09:02:55;12.80;90.30
13992;DHT22;7070;53.586;9.692;2023-11-19T09:05:25;12.90;90.30
13992;DHT22;7070;53.586;9.692;2023-11-19T09:07:51;12.90;90.20
13992;DHT22;7070;53.586;9.692;2023-11-19T09:10:18;13.00;90.20
13992;DHT22;7070;53.586;9.692;2023-11-19T09:12:45;13.00;90.30
13992;DHT22;7070;53.586;9.692;2023-11-19T09:15:12;13.00;90.10
13992;DHT22;7070;53.586;9.692;2023-11-19T09:17:39;13.10;90.10
13992;DHT22;7070;53.586;9.692;2023-11-19T09:20:07;13.10;90.40
13992;DHT22;7070;53.586;9.692;2023-11-19T09:22:38;13.20;90.10
13992;DHT22;7070;53.586;9.692;2023-11-19T09:25:06;13.20;90.00
13992;DHT22;7070;53.586;9.692;2023-11-19T09:27:33;13.20;89.90
13992;DHT22;7070;53.586;9.692;2023-11-19T09:30:00;13.30;89.80
13992;DHT22;7070;53.586;9.692;2023-11-19T09:32:27;13.30;89.70
13992;DHT22;7070;53.586;9.692;2023-11-19T09:34:53;13.40;89.70
13992;DHT22;7070;53.586;9.692;2023-11-19T09:37:20;13.40;89.60
13992;DHT22;7070;53.586;9.692;2023-11-19T09:39:49;13.40;89.40
13992;DHT22;7070;53.586;9.692;2023-11-19T09:42:16;13.40;89.20
13992;DHT22;7070;53.586;9.692;2023-11-19T09:44:43;13.40;88.90
13992;DHT22;7070;53.586;9.692;2023-11-19T09:47:11;13.40;88.50
13992;DHT22;7070;53.586;9.692;2023-11-19T09:49:44;13.30;88.30
13992;DHT22;7070;53.586;9.692;2023-11-19T09:52:11;13.30;88.10
13992;DHT22;7070;53.586;9.692;2023-11-19T09:54:38;13.20;88.10
13992;DHT22;7070;53.586;9.692;2023-11-19T09:57:07;13.20;88.20
13992;DHT22;7070;53.586;9.692;2023-11-19T09:59:37;13.10;88.30
13992;DHT22;7070;53.586;9.692;2023-11-19T10:02:06;13.10;88.50
13992;DHT22;7070;53.586;9.692;2023-11-19T10:04:35;13.10;89.30
13992;DHT22;7070;53.586;9.692;2023-11-19T10:07:03;13.10;88.60
13992;DHT22;7070;53.586;9.692;2023-11-19T10:09:30;13.10;88.60
13992;DHT22;7070;53.586;9.692;2023-11-19T10:11:57;13.10;88.50
13992;DHT22;7070;53.586;9.692;2023-11-19T10:14:26;13.00;88.50
13992;DHT22;7070;53.586;9.692;2023-11-19T10:16:55;13.10;88.60
13992;DHT22;7070;53.586;9.692;2023-11-19T10:19:22;13.10;88.60
13992;DHT22;7070;53.586;9.692;2023-11-19T10:21:49;13.10;88.50
13992;DHT22;7070;53.586;9.692;2023-11-19T10:24:16;13.10;88.50
13992;DHT22;7070;53.586;9.692;2023-11-19T10:26:42;13.10;88.40
13992;DHT22;7070;53.586;9.692;2023-11-19T10:29:12;13.10;88.40
13992;DHT22;7070;53.586;9.692;2023-11-19T10:31:43;13.10;89.10
13992;DHT22;7070;53.586;9.692;2023-11-19T10:34:24;13.00;88.30
13992;DHT22;7070;53.586;9.692;2023-11-19T10:36:52;13.00;88.30
13992;DHT22;7070;53.586;9.692;2023-11-19T10:39:20;13.00;88.30
13992;DHT22;7070;53.586;9.692;2023-11-19T10:41:49;13.00;88.20
13992;DHT22;7070;53.586;9.692;2023-11-19T10:44:31;12.90;88.10
13992;DHT22;7070;53.586;9.692;2023-11-19T10:47:05;12.90;88.20
13992;DHT22;7070;53.586;9.692;2023-11-19T10:49:34;12.90;88.20
13992;DHT22;7070;53.586;9.692;2023-11-19T10:52:01;12.90;88.40
13992;DHT22;7070;53.586;9.692;2023-11-19T10:54:31;12.90;88.50
13992;DHT22;7070;53.586;9.692;2023-11-19T10:57:00;12.90;88.80
13992;DHT22;7070;53.586;9.692;2023-11-19T10:59:30;13.00;89.60
13992;DHT22;7070;53.586;9.692;2023-11-19T11:01:58;13.10;88.90
13992;DHT22;7070;53.586;9.692;2023-11-19T11:04:30;13.10;88.80
13992;DHT22;7070;53.586;9.692;2023-11-19T11:06:58;13.10;88.60
13992;DHT22;7070;53.586;9.692;2023-11-19T11:09:26;13.10;88.60
13992;DHT22;7070;53.586;9.692;2023-11-19T11:11:54;13.10;88.70
13992;DHT22;7070;53.586;9.692;2023-11-19T11:14:23;13.20;88.90
13992;DHT22;7070;53.586;9.692;2023-11-19T11:16:51;13.20;88.90
13992;DHT22;7070;53.586;9.692;2023-11-19T11:19:20;13.20;88.80
13992;DHT22;7070;53.586;9.692;2023-11-19T11:21:52;13.20;88.50
13992;DHT22;7070;53.586;9.692;2023-11-19T11:27:47;13.20;88.30
13992;DHT22;7070;53.586;9.692;2023-11-19T11:30:24;13.20;88.50
13992;DHT22;7070;53.586;9.692;2023-11-19T11:33:02;13.30;88.80
13992;DHT22;7070;53.586;9.692;2023-11-19T11:35:40;13.30;88.80
13992;DHT22;7070;53.586;9.692;2023-11-19T11:38:11;13.30;88.90
13992;DHT22;7070;53.586;9.692;2023-11-19T11:40:40;13.30;88.80
13992;DHT22;7070;53.586;9.692;2023-11-19T11:46:08;13.40;89.00
13992;DHT22;7070;53.586;9.692;2023-11-19T11:48:35;13.40;89.00
13992;DHT22;7070;53.586;9.692;2023-11-19T11:51:11;13.50;89.00
13992;DHT22;7070;53.586;9.692;2023-11-19T11:53:41;13.50;89.10
13992;DHT22;7070;53.586;9.692;2023-11-19T11:56:09;13.60;89.40
13992;DHT22;7070;53.586;9.692;2023-11-19T11:58:36;13.70;89.50
13992;DHT22;7070;53.586;9.692;2023-11-19T12:01:05;13.80;89.50
13992;DHT22;7070;53.586;9.692;2023-11-19T12:03:35;14.00;89.30
13992;DHT22;7070;53.586;9.692;2023-11-19T12:06:04;14.00;89.00
13992;DHT22;7070;53.586;9.692;2023-11-19T12:08:34;14.10;88.90
13992;DHT22;7070;53.586;9.692;2023-11-19T12:11:03;14.20;88.70
13992;DHT22;7070;53.586;9.692;2023-11-19T12:13:55;14.30;88.50
13992;DHT22;7070;53.586;9.692;2023-11-19T12:16:24;14.30;88.40
13992;DHT22;7070;53.586;9.692;2023-11-19T12:18:53;14.30;87.90
13992;DHT22;7070;53.586;9.692;2023-11-19T12:21:30;14.20;87.70
13992;DHT22;7070;53.586;9.692;2023-11-19T12:23:59;14.20;87.50
13992;DHT22;7070;53.586;9.692;2023-11-19T12:26:38;14.20;87.30
13992;DHT22;7070;53.586;9.692;2023-11-19T12:29:05;14.10;87.20
13992;DHT22;7070;53.586;9.692;2023-11-19T12:31:33;14.10;87.20
13992;DHT22;7070;53.586;9.692;2023-11-19T12:34:11;14.00;87.20
13992;DHT22;7070;53.586;9.692;2023-11-19T12:36:41;14.00;87.50
13992;DHT22;7070;53.586;9.692;2023-11-19T12:39:09;14.00;87.30
13992;DHT22;7070;53.586;9.692;2023-11-19T12:41:55;13.90;87.30
13992;DHT22;7070;53.586;9.692;2023-11-19T12:44:25;14.00;87.50
13992;DHT22;7070;53.586;9.692;2023-11-19T12:47:05;14.00;87.60
13992;DHT22;7070;53.586;9.692;2023-11-19T12:49:35;14.00;87.60
13992;DHT22;7070;53.586;9.692;2023-11-19T12:52:11;14.00;87.60
13992;DHT22;7070;53.586;9.692;2023-11-19T12:54:38;14.00;87.60
13992;DHT22;7070;53.586;9.692;2023-11-19T12:57:07;14.10;87.70
13992;DHT22;7070;53.586;9.692;2023-11-19T12:59:34;14.10;87.70
13992;DHT22;7070;53.586;9.692;2023-11-19T13:02:01;14.10;87.70
13992;DHT22;7070;53.586;9.692;2023-11-19T13:04:31;14.10;87.60
13992;DHT22;7070;53.586;9.692;2023-11-19T13:06:58;14.20;87.80
13992;DHT22;7070;53.586;9.692;2023-11-19T13:09:26;14.20;87.90
13992;DHT22;7070;53.586;9.692;2023-11-19T13:11:53;14.30;87.90
13992;DHT22;7070;53.586;9.692;2023-11-19T13:14:23;14.40;87.90
13992;DHT22;7070;53.586;9.692;2023-11-19T13:16:50;14.50;87.60
13992;DHT22;7070;53.586;9.692;2023-11-19T13:19:19;14.50;87.10
13992;DHT22;7070;53.586;9.692;2023-11-19T13:21:46;14.50;87.50
13992;DHT22;7070;53.586;9.692;2023-11-19T13:24:14;14.40;86.40
13992;DHT22;7070;53.586;9.692;2023-11-19T13:26:41;14.30;86.10
13992;DHT22;7070;53.586;9.692;2023-11-19T13:29:08;14.20;85.90
13992;DHT22;7070;53.586;9.692;2023-11-19T13:31:37;14.10;85.90
13992;DHT22;7070;53.586;9.692;2023-11-19T13:34:04;14.10;86.10
13992;DHT22;7070;53.586;9.692;2023-11-19T13:36:32;14.00;86.20
13992;DHT22;7070;53.586;9.692;2023-11-19T13:38:59;13.90;86.30
13992;DHT22;7070;53.586;9.692;2023-11-19T13:41:26;13.90;86.30
13992;DHT22;7070;53.586;9.692;2023-11-19T13:43:53;13.80;86.40
13992;DHT22;7070;53.586;9.692;2023-11-19T13:46:20;13.80;86.60
13992;DHT22;7070;53.586;9.692;2023-11-19T13:48:49;13.80;86.80
13992;DHT22;7070;53.586;9.692;2023-11-19T13:51:16;13.80;87.00
13992;DHT22;7070;53.586;9.692;2023-11-19T13:53:43;13.80;87.10
13992;DHT22;7070;53.586;9.692;2023-11-19T13:56:10;13.90;87.10
13992;DHT22;7070;53.586;9.692;2023-11-19T13:58:37;13.90;87.00
13992;DHT22;7070;53.586;9.692;2023-11-19T14:01:04;13.90;86.90
13992;DHT22;7070;53.586;9.692;2023-11-19T14:03:31;13.90;86.70
13992;DHT22;7070;53.586;9.692;2023-11-19T14:06:05;13.90;86.60
13992;DHT22;7070;53.586;9.692;2023-11-19T14:08:33;13.90;86.50
13992;DHT22;7070;53.586;9.692;2023-11-19T14:11:00;13.90;86.40
13992;DHT22;7070;53.586;9.692;2023-11-19T14:13:27;13.80;86.20
13992;DHT22;7070;53.586;9.692;2023-11-19T14:15:54;13.80;86.30
13992;DHT22;7070;53.586;9.692;2023-11-19T14:18:21;13.70;86.30
13992;DHT22;7070;53.586;9.692;2023-11-19T14:20:48;13.70;86.50
13992;DHT22;7070;53.586;9.692;2023-11-19T14:23:16;13.70;86.60
13992;DHT22;7070;53.586;9.692;2023-11-19T14:25:43;13.60;86.60
13992;DHT22;7070;53.586;9.692;2023-11-19T14:28:10;13.60;86.70
13992;DHT22;7070;53.586;9.692;2023-11-19T14:30:37;13.60;86.70
13992;DHT22;7070;53.586;9.692;2023-11-19T14:33:04;13.60;86.80
13992;DHT22;7070;53.586;9.692;2023-11-19T14:35:31;13.60;86.80
13992;DHT22;7070;53.586;9.692;2023-11-19T14:37:59;13.60;86.70
13992;DHT22;7070;53.586;9.692;2023-11-19T14:40:31;13.50;86.60
13992;DHT22;7070;53.586;9.692;2023-11-19T14:42:58;13.60;86.70
13992;DHT22;7070;53.586;9.692;2023-11-19T14:45:25;13.50;86.60
13992;DHT22;7070;53.586;9.692;2023-11-19T14:47:52;13.50;86.70
13992;DHT22;7070;53.586;9.692;2023-11-19T14:50:19;13.40;86.30
13992;DHT22;7070;53.586;9.692;2023-11-19T14:52:46;13.30;86.10
13992;DHT22;7070;53.586;9.692;2023-11-19T14:55:13;13.20;86.00
13992;DHT22;7070;53.586;9.692;2023-11-19T14:57:41;13.10;85.80
13992;DHT22;7070;53.586;9.692;2023-11-19T15:00:10;12.90;85.80
13992;DHT22;7070;53.586;9.692;2023-11-19T15:02:40;12.80;85.90
13992;DHT22;7070;53.586;9.692;2023-11-19T15:05:08;12.70;86.10
13992;DHT22;7070;53.586;9.692;2023-11-19T15:07:36;12.60;86.40
13992;DHT22;7070;53.586;9.692;2023-11-19T15:10:04;12.50;86.40
13992;DHT22;7070;53.586;9.692;2023-11-19T15:12:35;12.40;86.60
13992;DHT22;7070;53.586;9.692;2023-11-19T15:15:08;12.40;86.70
13992;DHT22;7070;53.586;9.692;2023-11-19T15:17:39;12.30;86.70
13992;DHT22;7070;53.586;9.692;2023-11-19T15:20:07;12.20;86.60
13992;DHT22;7070;53.586;9.692;2023-11-19T15:22:34;12.20;86.90
13992;DHT22;7070;53.586;9.692;2023-11-19T15:25:01;12.10;87.70
13992;DHT22;7070;53.586;9.692;2023-11-19T15:27:28;12.10;87.90
13992;DHT22;7070;53.586;9.692;2023-11-19T15:29:55;12.00;86.90
13992;DHT22;7070;53.586;9.692;2023-11-19T15:32:23;12.00;87.20
13992;DHT22;7070;53.586;9.692;2023-11-19T15:34:50;11.90;87.30
13992;DHT22;7070;53.586;9.692;2023-11-19T15:37:18;11.90;87.40
13992;DHT22;7070;53.586;9.692;2023-11-19T15:39:45;11.80;87.60
13992;DHT22;7070;53.586;9.692;2023-11-19T15:42:13;11.80;87.70
13992;DHT22;7070;53.586;9.692;2023-11-19T15:44:40;11.80;87.90
13992;DHT22;7070;53.586;9.692;2023-11-19T15:47:07;11.80;87.90
13992;DHT22;7070;53.586;9.692;2023-11-19T15:49:35;11.80;88.10
13992;DHT22;7070;53.586;9.692;2023-11-19T15:52:02;11.80;88.20
13992;DHT22;7070;53.586;9.692;2023-11-19T15:54:30;11.80;88.40
13992;DHT22;7070;53.586;9.692;2023-11-19T15:56:58;11.80;88.40
13992;DHT22;7070;53.586;9.692;2023-11-19T15:59:25;11.80;88.40
13992;DHT22;7070;53.586;9.692;2023-11-19T16:01:52;11.80;88.50